sensor_id;sensor_type;location;lat;lon;timestamp;pressure;altitude;pressure_sealevel;temperature;humidity
829;BME280;396;52.558;13.188;2024-01-15T00:00:50;98820.91;;;2.26;100.00
829;BME280;396;52.558;13.188;2024-01-15T00:03:16;98814.47;;;2.27;100.00
829;BME280;396;52.558;13.188;2024-01-15T00:05:44;98813.69;;;2.27;100.00
829;BME280;396;52.558;13.188;2024-01-15T00:08:11;98801.69;;;2.24;100.00
829;BME280;396;52.558;13.188;2024-01-15T00:10:38;98805.75;;;2.22;100.00
829;BME280;396;52.558;13.188;2024-01-15T00:13:05;98792.09;;;2.23;100.00
829;BME280;396;52.558;13.188;2024-01-15T00:15:32;98785.66;;;2.24;100.00
829;BME280;396;52.558;13.188;2024-01-15T00:17:59;98794.53;;;2.20;100.00
829;BME280;396;52.558;13.188;2024-01-15T00:20:25;98776.38;;;2.22;100.00
829;BME280;396;52.558;13.188;2024-01-15T00:22:53;98774.41;;;2.27;100.00
829;BME280;396;52.558;13.188;2024-01-15T00:25:20;98770.28;;;2.35;100.00
829;BME280;396;52.558;13.188;2024-01-15T00:27:46;98774.31;;;2.33;100.00
829;BME280;396;52.558;13.188;2024-01-15T00:30:13;98760.09;;;2.37;100.00
829;BME280;396;52.558;13.188;2024-01-15T00:32:40;98758.72;;;2.40;100.00
829;BME280;396;52.558;13.188;2024-01-15T00:35:07;98756.13;;;2.35;100.00
829;BME280;396;52.558;13.188;2024-01-15T00:37:34;98749.41;;;2.37;100.00
829;BME280;396;52.558;13.188;2024-01-15T00:40:03;98755.53;;;2.38;100.00
829;BME280;396;52.558;13.188;2024-01-15T00:42:29;98739.00;;;2.36;100.00
829;BME280;396;52.558;13.188;2024-01-15T00:44:56;98753.88;;;2.42;100.00
829;BME280;396;52.558;13.188;2024-01-15T00:47:23;98752.78;;;2.43;100.00
829;BME280;396;52.558;13.188;2024-01-15T00:49:49;98747.50;;;2.38;100.00
829;BME280;396;52.558;13.188;2024-01-15T00:52:16;98745.44;;;2.35;100.00
829;BME280;396;52.558;13.188;2024-01-15T00:54:43;98748.81;;;2.40;100.00
829;BME280;396;52.558;13.188;2024-01-15T00:57:10;98742.97;;;2.38;100.00
829;BME280;396;52.558;13.188;2024-01-15T00:59:37;98737.13;;;2.36;100.00
829;BME280;396;52.558;13.188;2024-01-15T01:02:04;98743.34;;;2.32;100.00
829;BME280;396;52.558;13.188;2024-01-15T01:04:31;98748.34;;;2.19;100.00
829;BME280;396;52.558;13.188;2024-01-15T01:06:58;98747.72;;;2.09;100.00
829;BME280;396;52.558;13.188;2024-01-15T01:09:24;98745.69;;;2.00;100.00
829;BME280;396;52.558;13.188;2024-01-15T01:11:54;98740.78;;;1.89;100.00
829;BME280;396;52.558;13.188;2024-01-15T01:14:22;98738.19;;;1.84;100.00
829;BME280;396;52.558;13.188;2024-01-15T01:16:49;98741.88;;;1.88;100.00
829;BME280;396;52.558;13.188;2024-01-15T01:19:15;98745.41;;;1.83;100.00
829;BME280;396;52.558;13.188;2024-01-15T01:21:42;98748.81;;;1.89;100.00
829;BME280;396;52.558;13.188;2024-01-15T01:24:09;98742.91;;;1.92;100.00
829;BME280;396;52.558;13.188;2024-01-15T01:26:35;98752.78;;;1.91;100.00
829;BME280;396;52.558;13.188;2024-01-15T01:29:02;98743.75;;;1.87;100.00
829;BME280;396;52.558;13.188;2024-01-15T01:31:30;98753.66;;;1.87;100.00
829;BME280;396;52.558;13.188;2024-01-15T01:33:57;98739.94;;;1.74;100.00
829;BME280;396;52.558;13.188;2024-01-15T01:36:23;98737.25;;;1.74;100.00
829;BME280;396;52.558;13.188;2024-01-15T01:38:50;98741.09;;;1.68;100.00
829;BME280;396;52.558;13.188;2024-01-15T01:41:16;98741.38;;;1.67;100.00
829;BME280;396;52.558;13.188;2024-01-15T01:43:43;98728.31;;;1.65;100.00
829;BME280;396;52.558;13.188;2024-01-15T01:46:10;98734.78;;;1.59;100.00
829;BME280;396;52.558;13.188;2024-01-15T01:48:38;98730.19;;;1.65;100.00
829;BME280;396;52.558;13.188;2024-01-15T01:51:05;98737.84;;;1.71;100.00
829;BME280;396;52.558;13.188;2024-01-15T01:53:34;98735.47;;;1.70;100.00
829;BME280;396;52.558;13.188;2024-01-15T01:56:03;98728.16;;;1.75;100.00
829;BME280;396;52.558;13.188;2024-01-15T01:58:30;98709.50;;;1.75;100.00
829;BME280;396;52.558;13.188;2024-01-15T02:00:58;98697.31;;;1.69;100.00
829;BME280;396;52.558;13.188;2024-01-15T02:03:25;98709.56;;;1.70;100.00
829;BME280;396;52.558;13.188;2024-01-15T02:05:54;98710.88;;;1.73;100.00
829;BME280;396;52.558;13.188;2024-01-15T02:08:21;98708.78;;;1.70;100.00
829;BME280;396;52.558;13.188;2024-01-15T02:10:48;98699.47;;;1.67;100.00
829;BME280;396;52.558;13.188;2024-01-15T02:13:14;98698.31;;;1.73;100.00
829;BME280;396;52.558;13.188;2024-01-15T02:15:41;98707.59;;;1.76;100.00
829;BME280;396;52.558;13.188;2024-01-15T02:18:08;98698.25;;;1.79;100.00
829;BME280;396;52.558;13.188;2024-01-15T02:20:35;98696.66;;;1.77;100.00
829;BME280;396;52.558;13.188;2024-01-15T02:23:07;98692.91;;;1.79;100.00
829;BME280;396;52.558;13.188;2024-01-15T02:25:35;98691.81;;;1.80;100.00
829;BME280;396;52.558;13.188;2024-01-15T02:28:03;98691.03;;;1.79;100.00
829;BME280;396;52.558;13.188;2024-01-15T02:30:31;98689.22;;;1.74;100.00
829;BME280;396;52.558;13.188;2024-01-15T02:32:58;98692.38;;;1.76;100.00
829;BME280;396;52.558;13.188;2024-01-15T02:35:24;98693.47;;;1.75;100.00
829;BME280;396;52.558;13.188;2024-01-15T02:37:51;98692.19;;;1.73;100.00
829;BME280;396;52.558;13.188;2024-01-15T02:40:19;98688.84;;;1.81;100.00
829;BME280;396;52.558;13.188;2024-01-15T02:42:45;98687.34;;;1.75;100.00
829;BME280;396;52.558;13.188;2024-01-15T02:45:12;98688.50;;;1.69;100.00
829;BME280;396;52.558;13.188;2024-01-15T02:47:39;98686.41;;;1.66;100.00
829;BME280;396;52.558;13.188;2024-01-15T02:50:06;98679.66;;;1.73;100.00
829;BME280;396;52.558;13.188;2024-01-15T02:52:32;98685.78;;;1.74;100.00
829;BME280;396;52.558;13.188;2024-01-15T02:54:59;98672.84;;;1.81;100.00
829;BME280;396;52.558;13.188;2024-01-15T02:57:27;98680.06;;;1.81;100.00
829;BME280;396;52.558;13.188;2024-01-15T02:59:53;98670.91;;;1.87;100.00
829;BME280;396;52.558;13.188;2024-01-15T03:02:20;98673.50;;;1.92;100.00
829;BME280;396;52.558;13.188;2024-01-15T03:04:47;98682.16;;;1.84;100.00
829;BME280;396;52.558;13.188;2024-01-15T03:07:13;98674.50;;;1.96;100.00
829;BME280;396;52.558;13.188;2024-01-15T03:09:40;98677.44;;;1.94;100.00
829;BME280;396;52.558;13.188;2024-01-15T03:12:07;98678.59;;;1.88;100.00
829;BME280;396;52.558;13.188;2024-01-15T03:14:35;98664.09;;;1.94;100.00
829;BME280;396;52.558;13.188;2024-01-15T03:17:02;98673.41;;;1.97;100.00
829;BME280;396;52.558;13.188;2024-01-15T03:19:28;98667.50;;;2.00;100.00
829;BME280;396;52.558;13.188;2024-01-15T03:21:55;98663.22;;;1.99;100.00
829;BME280;396;52.558;13.188;2024-01-15T03:24:22;98656.03;;;1.99;100.00
829;BME280;396;52.558;13.188;2024-01-15T03:26:49;98660.47;;;2.04;100.00
829;BME280;396;52.558;13.188;2024-01-15T03:29:15;98660.97;;;2.06;100.00
829;BME280;396;52.558;13.188;2024-01-15T03:31:43;98668.69;;;2.08;100.00
829;BME280;396;52.558;13.188;2024-01-15T03:34:11;98660.47;;;2.04;100.00
829;BME280;396;52.558;13.188;2024-01-15T03:36:38;98651.06;;;2.07;100.00
829;BME280;396;52.558;13.188;2024-01-15T03:39:04;98652.97;;;2.06;100.00
829;BME280;396;52.558;13.188;2024-01-15T03:41:31;98659.88;;;2.07;100.00
829;BME280;396;52.558;13.188;2024-01-15T03:43:57;98648.94;;;2.09;100.00
829;BME280;396;52.558;13.188;2024-01-15T03:46:24;98647.84;;;2.10;100.00
829;BME280;396;52.558;13.188;2024-01-15T03:48:52;98637.84;;;2.15;100.00
829;BME280;396;52.558;13.188;2024-01-15T03:51:19;98633.03;;;2.17;100.00
829;BME280;396;52.558;13.188;2024-01-15T03:53:46;98632.72;;;2.19;100.00
829;BME280;396;52.558;13.188;2024-01-15T03:56:13;98641.63;;;2.14;100.00
829;BME280;396;52.558;13.188;2024-01-15T03:58:38;98624.50;;;2.15;100.00
829;BME280;396;52.558;13.188;2024-01-15T04:01:07;98627.69;;;2.17;100.00
829;BME280;396;52.558;13.188;2024-01-15T04:03:34;98630.34;;;2.17;100.00
829;BME280;396;52.558;13.188;2024-01-15T04:06:02;98622.63;;;2.16;100.00
829;BME280;396;52.558;13.188;2024-01-15T04:08:29;98612.81;;;2.11;100.00
829;BME280;396;52.558;13.188;2024-01-15T04:10:56;98592.84;;;2.09;100.00
829;BME280;396;52.558;13.188;2024-01-15T04:13:23;98605.09;;;2.10;100.00
829;BME280;396;52.558;13.188;2024-01-15T04:15:49;98610.66;;;2.13;100.00
829;BME280;396;52.558;13.188;2024-01-15T04:18:16;98623.63;;;2.20;100.00
829;BME280;396;52.558;13.188;2024-01-15T04:20:43;98616.19;;;2.17;100.00
829;BME280;396;52.558;13.188;2024-01-15T04:23:11;98625.50;;;2.19;100.00
829;BME280;396;52.558;13.188;2024-01-15T04:25:38;98606.50;;;2.21;100.00
829;BME280;396;52.558;13.188;2024-01-15T04:28:07;98620.66;;;2.21;100.00
829;BME280;396;52.558;13.188;2024-01-15T04:30:34;98633.94;;;2.26;100.00
829;BME280;396;52.558;13.188;2024-01-15T04:33:01;98637.59;;;2.31;100.00
829;BME280;396;52.558;13.188;2024-01-15T04:35:27;98616.72;;;2.33;100.00
829;BME280;396;52.558;13.188;2024-01-15T04:37:54;98615.41;;;2.30;99.60
829;BME280;396;52.558;13.188;2024-01-15T04:40:22;98615.22;;;2.26;99.36
829;BME280;396;52.558;13.188;2024-01-15T04:42:48;98601.38;;;2.24;100.00
829;BME280;396;52.558;13.188;2024-01-15T04:45:15;98607.00;;;2.23;100.00
829;BME280;396;52.558;13.188;2024-01-15T04:47:43;98598.59;;;2.30;100.00
829;BME280;396;52.558;13.188;2024-01-15T04:50:10;98604.34;;;2.23;100.00
829;BME280;396;52.558;13.188;2024-01-15T04:52:36;98597.13;;;2.23;99.86
829;BME280;396;52.558;13.188;2024-01-15T04:55:04;98595.75;;;2.26;99.95
829;BME280;396;52.558;13.188;2024-01-15T04:57:32;98599.38;;;2.30;99.80
829;BME280;396;52.558;13.188;2024-01-15T04:59:58;98597.44;;;2.36;99.31
829;BME280;396;52.558;13.188;2024-01-15T05:02:25;98590.09;;;2.41;98.06
829;BME280;396;52.558;13.188;2024-01-15T05:04:51;98590.09;;;2.41;97.89
829;BME280;396;52.558;13.188;2024-01-15T05:07:18;98584.75;;;2.41;98.35
829;BME280;396;52.558;13.188;2024-01-15T05:09:45;98589.78;;;2.43;98.18
829;BME280;396;52.558;13.188;2024-01-15T05:12:11;98584.19;;;2.44;97.74
829;BME280;396;52.558;13.188;2024-01-15T05:14:40;98586.66;;;2.41;98.40
829;BME280;396;52.558;13.188;2024-01-15T05:17:06;98586.84;;;2.44;98.11
829;BME280;396;52.558;13.188;2024-01-15T05:19:33;98600.22;;;2.44;98.58
829;BME280;396;52.558;13.188;2024-01-15T05:21:59;98588.91;;;2.47;97.86
829;BME280;396;52.558;13.188;2024-01-15T05:24:26;98563.00;;;2.48;98.06
829;BME280;396;52.558;13.188;2024-01-15T05:26:53;98581.09;;;2.51;97.45
829;BME280;396;52.558;13.188;2024-01-15T05:29:19;98585.34;;;2.52;96.65
829;BME280;396;52.558;13.188;2024-01-15T05:31:47;98551.22;;;2.49;96.64
829;BME280;396;52.558;13.188;2024-01-15T05:34:14;98571.59;;;2.45;97.26
829;BME280;396;52.558;13.188;2024-01-15T05:36:39;98587.53;;;2.50;96.22
829;BME280;396;52.558;13.188;2024-01-15T05:39:07;98578.44;;;2.51;96.46
829;BME280;396;52.558;13.188;2024-01-15T05:41:34;98598.63;;;2.57;95.81
829;BME280;396;52.558;13.188;2024-01-15T05:44:01;98573.84;;;2.65;95.30
829;BME280;396;52.558;13.188;2024-01-15T05:46:27;98571.81;;;2.62;96.45
829;BME280;396;52.558;13.188;2024-01-15T05:48:55;98584.75;;;2.55;98.12
829;BME280;396;52.558;13.188;2024-01-15T05:51:22;98605.94;;;2.51;99.02
829;BME280;396;52.558;13.188;2024-01-15T05:53:48;98572.28;;;2.50;99.63
829;BME280;396;52.558;13.188;2024-01-15T05:56:15;98579.91;;;2.43;100.00
829;BME280;396;52.558;13.188;2024-01-15T05:58:42;98569.63;;;2.37;100.00
829;BME280;396;52.558;13.188;2024-01-15T06:01:09;98588.91;;;2.47;100.00
829;BME280;396;52.558;13.188;2024-01-15T06:03:36;98587.34;;;2.46;100.00
829;BME280;396;52.558;13.188;2024-01-15T06:06:04;98568.16;;;2.44;100.00
829;BME280;396;52.558;13.188;2024-01-15T06:08:31;98559.25;;;2.49;100.00
829;BME280;396;52.558;13.188;2024-01-15T06:10:57;98565.16;;;2.46;100.00
829;BME280;396;52.558;13.188;2024-01-15T06:13:24;98576.38;;;2.48;99.98
829;BME280;396;52.558;13.188;2024-01-15T06:15:51;98567.34;;;2.44;99.60
829;BME280;396;52.558;13.188;2024-01-15T06:18:17;98573.06;;;2.51;98.58
829;BME280;396;52.558;13.188;2024-01-15T06:20:44;98568.34;;;2.48;99.14
829;BME280;396;52.558;13.188;2024-01-15T06:23:12;98563.97;;;2.52;99.11
829;BME280;396;52.558;13.188;2024-01-15T06:25:38;98566.94;;;2.50;99.49
829;BME280;396;52.558;13.188;2024-01-15T06:28:05;98561.13;;;2.48;99.90
829;BME280;396;52.558;13.188;2024-01-15T06:30:32;98575.84;;;2.46;100.00
829;BME280;396;52.558;13.188;2024-01-15T06:32:58;98557.84;;;2.51;100.00
829;BME280;396;52.558;13.188;2024-01-15T06:35:25;98564.47;;;2.54;100.00
829;BME280;396;52.558;13.188;2024-01-15T06:37:51;98551.59;;;2.56;100.00
829;BME280;396;52.558;13.188;2024-01-15T06:40:19;98559.63;;;2.56;100.00
829;BME280;396;52.558;13.188;2024-01-15T06:42:46;98550.31;;;2.53;100.00
829;BME280;396;52.558;13.188;2024-01-15T06:45:13;98552.00;;;2.49;100.00
829;BME280;396;52.558;13.188;2024-01-15T06:47:39;98582.41;;;2.53;99.33
829;BME280;396;52.558;13.188;2024-01-15T06:50:07;98578.25;;;2.61;99.28
829;BME280;396;52.558;13.188;2024-01-15T06:52:34;98563.59;;;2.59;98.54
829;BME280;396;52.558;13.188;2024-01-15T06:55:01;98570.03;;;2.58;98.02
829;BME280;396;52.558;13.188;2024-01-15T06:57:29;98553.69;;;2.59;97.46
829;BME280;396;52.558;13.188;2024-01-15T06:59:56;98582.41;;;2.53;97.38
829;BME280;396;52.558;13.188;2024-01-15T07:02:22;98592.66;;;2.60;96.98
829;BME280;396;52.558;13.188;2024-01-15T07:04:49;98599.69;;;2.70;95.54
829;BME280;396;52.558;13.188;2024-01-15T07:07:16;98589.41;;;2.77;94.77
829;BME280;396;52.558;13.188;2024-01-15T07:09:42;98594.75;;;2.77;95.09
829;BME280;396;52.558;13.188;2024-01-15T07:12:09;98592.88;;;2.77;94.75
829;BME280;396;52.558;13.188;2024-01-15T07:14:37;98592.06;;;2.77;93.70
829;BME280;396;52.558;13.188;2024-01-15T07:17:03;98594.44;;;2.78;93.44
829;BME280;396;52.558;13.188;2024-01-15T07:19:30;98617.31;;;2.85;93.05
829;BME280;396;52.558;13.188;2024-01-15T07:21:57;98619.09;;;2.89;93.17
829;BME280;396;52.558;13.188;2024-01-15T07:24:23;98605.94;;;2.93;92.86
829;BME280;396;52.558;13.188;2024-01-15T07:26:50;98616.72;;;2.88;93.48
829;BME280;396;52.558;13.188;2024-01-15T07:29:17;98618.09;;;2.99;91.35
829;BME280;396;52.558;13.188;2024-01-15T07:31:49;98641.16;;;2.95;91.70
829;BME280;396;52.558;13.188;2024-01-15T07:34:16;98636.34;;;2.97;91.95
829;BME280;396;52.558;13.188;2024-01-15T07:36:43;98628.19;;;3.02;91.26
829;BME280;396;52.558;13.188;2024-01-15T07:39:10;98633.03;;;3.00;91.89
829;BME280;396;52.558;13.188;2024-01-15T07:41:37;98628.31;;;2.97;92.21
829;BME280;396;52.558;13.188;2024-01-15T07:44:04;98654.34;;;2.91;91.87
829;BME280;396;52.558;13.188;2024-01-15T07:46:31;98644.75;;;2.90;92.13
829;BME280;396;52.558;13.188;2024-01-15T07:48:59;98654.06;;;2.93;92.21
829;BME280;396;52.558;13.188;2024-01-15T07:51:26;98649.69;;;2.97;91.75
829;BME280;396;52.558;13.188;2024-01-15T07:53:53;98649.19;;;2.95;91.91
829;BME280;396;52.558;13.188;2024-01-15T07:56:20;98639.00;;;2.97;92.04
829;BME280;396;52.558;13.188;2024-01-15T07:58:47;98646.03;;;2.93;92.63
829;BME280;396;52.558;13.188;2024-01-15T08:01:14;98645.03;;;2.89;94.14
829;BME280;396;52.558;13.188;2024-01-15T08:03:41;98635.13;;;2.89;93.63
829;BME280;396;52.558;13.188;2024-01-15T08:06:09;98634.84;;;2.91;92.95
829;BME280;396;52.558;13.188;2024-01-15T08:08:36;98644.75;;;2.90;93.76
829;BME280;396;52.558;13.188;2024-01-15T08:11:03;98647.94;;;2.92;92.85
829;BME280;396;52.558;13.188;2024-01-15T08:13:30;98643.16;;;2.89;93.52
829;BME280;396;52.558;13.188;2024-01-15T08:15:57;98643.84;;;2.95;92.89
829;BME280;396;52.558;13.188;2024-01-15T08:18:23;98645.25;;;2.92;92.99
829;BME280;396;52.558;13.188;2024-01-15T08:20:50;98631.47;;;2.99;92.54
829;BME280;396;52.558;13.188;2024-01-15T08:23:18;98633.16;;;2.95;92.70
829;BME280;396;52.558;13.188;2024-01-15T08:25:46;98636.81;;;2.99;91.98
829;BME280;396;52.558;13.188;2024-01-15T08:28:13;98652.53;;;3.00;92.38
829;BME280;396;52.558;13.188;2024-01-15T08:30:39;98646.13;;;3.01;91.60
829;BME280;396;52.558;13.188;2024-01-15T08:33:06;98642.84;;;2.91;93.12
829;BME280;396;52.558;13.188;2024-01-15T08:35:33;98658.78;;;2.96;92.87
829;BME280;396;52.558;13.188;2024-01-15T08:38:00;98652.47;;;3.06;91.95
829;BME280;396;52.558;13.188;2024-01-15T08:40:28;98648.38;;;3.08;92.10
829;BME280;396;52.558;13.188;2024-01-15T08:42:56;98642.66;;;3.15;91.45
829;BME280;396;52.558;13.188;2024-01-15T08:45:22;98667.31;;;3.12;91.45
829;BME280;396;52.558;13.188;2024-01-15T08:47:49;98651.06;;;3.08;92.10
829;BME280;396;52.558;13.188;2024-01-15T08:50:16;98668.78;;;3.04;92.48
829;BME280;396;52.558;13.188;2024-01-15T08:52:42;98659.19;;;3.03;92.78
829;BME280;396;52.558;13.188;2024-01-15T08:55:09;98650.66;;;3.01;93.21
829;BME280;396;52.558;13.188;2024-01-15T08:57:37;98653.84;;;3.03;93.13
829;BME280;396;52.558;13.188;2024-01-15T09:00:04;98662.34;;;3.05;93.34
829;BME280;396;52.558;13.188;2024-01-15T09:02:33;98669.31;;;3.06;93.83
829;BME280;396;52.558;13.188;2024-01-15T09:05:00;98674.03;;;3.09;92.72
829;BME280;396;52.558;13.188;2024-01-15T09:07:29;98673.56;;;3.07;93.38
829;BME280;396;52.558;13.188;2024-01-15T09:09:56;98678.91;;;3.07;93.64
829;BME280;396;52.558;13.188;2024-01-15T09:12:24;98665.13;;;3.14;92.71
829;BME280;396;52.558;13.188;2024-01-15T09:14:52;98677.31;;;3.06;94.34
829;BME280;396;52.558;13.188;2024-01-15T09:17:19;98679.38;;;3.09;92.97
829;BME280;396;52.558;13.188;2024-01-15T09:19:45;98694.25;;;3.15;93.30
829;BME280;396;52.558;13.188;2024-01-15T09:22:12;98680.25;;;3.18;92.94
829;BME280;396;52.558;13.188;2024-01-15T09:24:40;98690.97;;;3.18;92.57
829;BME280;396;52.558;13.188;2024-01-15T09:27:06;98692.75;;;3.23;92.48
829;BME280;396;52.558;13.188;2024-01-15T09:29:33;98697.19;;;3.27;92.65
829;BME280;396;52.558;13.188;2024-01-15T09:32:03;98685.72;;;3.27;92.18
829;BME280;396;52.558;13.188;2024-01-15T09:34:30;98677.00;;;3.21;92.95
829;BME280;396;52.558;13.188;2024-01-15T09:36:57;98685.63;;;3.18;92.68
829;BME280;396;52.558;13.188;2024-01-15T09:39:25;98693.06;;;3.21;92.75
829;BME280;396;52.558;13.188;2024-01-15T09:41:52;98693.06;;;3.21;92.19
829;BME280;396;52.558;13.188;2024-01-15T09:44:19;98690.25;;;3.26;92.21
829;BME280;396;52.558;13.188;2024-01-15T09:46:47;98695.94;;;3.25;92.07
829;BME280;396;52.558;13.188;2024-01-15T09:49:17;98698.59;;;3.25;92.65
829;BME280;396;52.558;13.188;2024-01-15T09:51:44;98693.84;;;3.22;92.98
829;BME280;396;52.558;13.188;2024-01-15T09:54:11;98699.88;;;3.27;92.69
829;BME280;396;52.558;13.188;2024-01-15T09:56:38;98704.53;;;3.22;92.20
829;BME280;396;52.558;13.188;2024-01-15T09:59:05;98696.72;;;3.25;92.80
829;BME280;396;52.558;13.188;2024-01-15T10:01:36;98686.50;;;3.27;92.25
829;BME280;396;52.558;13.188;2024-01-15T10:04:04;98685.91;;;3.31;92.33
829;BME280;396;52.558;13.188;2024-01-15T10:06:32;98687.19;;;3.33;92.54
829;BME280;396;52.558;13.188;2024-01-15T10:09:00;98682.53;;;3.39;92.10
829;BME280;396;52.558;13.188;2024-01-15T10:11:26;98667.94;;;3.45;91.56
829;BME280;396;52.558;13.188;2024-01-15T10:13:53;98685.09;;;3.44;91.22
829;BME280;396;52.558;13.188;2024-01-15T10:16:22;98675.38;;;3.48;91.88
829;BME280;396;52.558;13.188;2024-01-15T10:18:49;98678.31;;;3.60;90.34
829;BME280;396;52.558;13.188;2024-01-15T10:21:16;98680.09;;;3.65;90.34
829;BME280;396;52.558;13.188;2024-01-15T10:23:44;98692.75;;;3.73;90.41
829;BME280;396;52.558;13.188;2024-01-15T10:26:11;98668.72;;;3.82;88.84
829;BME280;396;52.558;13.188;2024-01-15T10:28:38;98667.56;;;3.74;88.96
829;BME280;396;52.558;13.188;2024-01-15T10:31:04;98686.44;;;3.69;89.46
829;BME280;396;52.558;13.188;2024-01-15T10:33:31;98678.69;;;3.67;88.94
829;BME280;396;52.558;13.188;2024-01-15T10:35:59;98682.09;;;3.59;87.99
829;BME280;396;52.558;13.188;2024-01-15T10:38:26;98682.25;;;3.63;89.01
829;BME280;396;52.558;13.188;2024-01-15T10:40:55;98681.47;;;3.62;89.73
829;BME280;396;52.558;13.188;2024-01-15T10:43:22;98689.38;;;3.67;89.02
829;BME280;396;52.558;13.188;2024-01-15T10:45:50;98689.50;;;3.62;88.90
829;BME280;396;52.558;13.188;2024-01-15T10:48:18;98694.59;;;3.50;89.67
829;BME280;396;52.558;13.188;2024-01-15T10:50:46;98697.66;;;3.57;89.00
829;BME280;396;52.558;13.188;2024-01-15T10:53:15;98675.44;;;3.57;87.89
829;BME280;396;52.558;13.188;2024-01-15T10:55:42;98675.03;;;3.63;88.35
829;BME280;396;52.558;13.188;2024-01-15T10:58:10;98687.63;;;3.63;87.95
829;BME280;396;52.558;13.188;2024-01-15T11:00:37;98688.59;;;3.67;87.73
829;BME280;396;52.558;13.188;2024-01-15T11:03:05;98683.44;;;3.70;86.87
829;BME280;396;52.558;13.188;2024-01-15T11:05:33;98678.97;;;3.66;86.85
829;BME280;396;52.558;13.188;2024-01-15T11:08:01;98686.81;;;3.62;87.92
829;BME280;396;52.558;13.188;2024-01-15T11:10:41;98685.25;;;3.61;88.63
829;BME280;396;52.558;13.188;2024-01-15T11:13:10;98688.84;;;3.57;90.02
829;BME280;396;52.558;13.188;2024-01-15T11:15:58;98692.81;;;3.59;89.73
829;BME280;396;52.558;13.188;2024-01-15T11:18:27;98685.25;;;3.61;90.38
829;BME280;396;52.558;13.188;2024-01-15T11:21:25;98696.53;;;3.58;91.32
829;BME280;396;52.558;13.188;2024-01-15T11:23:54;98703.97;;;3.61;92.58
829;BME280;396;52.558;13.188;2024-01-15T11:26:33;98719.66;;;3.54;92.94
829;BME280;396;52.558;13.188;2024-01-15T11:29:03;98699.97;;;3.50;93.21
829;BME280;396;52.558;13.188;2024-01-15T11:32:01;98708.38;;;3.43;94.44
829;BME280;396;52.558;13.188;2024-01-15T11:34:52;98707.81;;;3.33;95.44
829;BME280;396;52.558;13.188;2024-01-15T11:37:19;98704.53;;;3.22;96.42
829;BME280;396;52.558;13.188;2024-01-15T11:39:46;98700.41;;;3.16;97.51
829;BME280;396;52.558;13.188;2024-01-15T11:42:13;98704.97;;;3.01;98.62
829;BME280;396;52.558;13.188;2024-01-15T11:44:42;98711.59;;;2.90;100.00
829;BME280;396;52.558;13.188;2024-01-15T11:47:10;98714.06;;;2.87;100.00
829;BME280;396;52.558;13.188;2024-01-15T11:49:58;98709.22;;;2.75;100.00
829;BME280;396;52.558;13.188;2024-01-15T11:52:26;98713.34;;;2.67;100.00
829;BME280;396;52.558;13.188;2024-01-15T11:55:01;98706.59;;;2.70;100.00
829;BME280;396;52.558;13.188;2024-01-15T11:57:34;98699.00;;;2.63;100.00
829;BME280;396;52.558;13.188;2024-01-15T12:00:06;98701.88;;;2.67;100.00
829;BME280;396;52.558;13.188;2024-01-15T12:02:33;98710.59;;;2.72;100.00
829;BME280;396;52.558;13.188;2024-01-15T12:04:59;98697.63;;;2.80;100.00
829;BME280;396;52.558;13.188;2024-01-15T12:07:26;98710.47;;;2.77;100.00
829;BME280;396;52.558;13.188;2024-01-15T12:09:53;98710.47;;;2.77;100.00
829;BME280;396;52.558;13.188;2024-01-15T12:12:24;98707.72;;;2.83;100.00
829;BME280;396;52.558;13.188;2024-01-15T12:14:54;98704.75;;;2.84;100.00
829;BME280;396;52.558;13.188;2024-01-15T12:17:23;98721.19;;;2.77;100.00
829;BME280;396;52.558;13.188;2024-01-15T12:19:49;98715.34;;;2.75;100.00
829;BME280;396;52.558;13.188;2024-01-15T12:22:16;98718.22;;;2.79;100.00
829;BME280;396;52.558;13.188;2024-01-15T12:24:42;98719.69;;;2.85;99.22
829;BME280;396;52.558;13.188;2024-01-15T12:27:09;98723.56;;;2.79;99.40
829;BME280;396;52.558;13.188;2024-01-15T12:29:38;98732.06;;;2.81;98.97
829;BME280;396;52.558;13.188;2024-01-15T12:32:05;98734.06;;;2.75;99.35
829;BME280;396;52.558;13.188;2024-01-15T12:34:34;98741.06;;;2.58;100.00
829;BME280;396;52.558;13.188;2024-01-15T12:37:01;98736.75;;;2.43;100.00
829;BME280;396;52.558;13.188;2024-01-15T12:39:28;98738.97;;;2.22;100.00
829;BME280;396;52.558;13.188;2024-01-15T12:41:54;98732.94;;;2.30;100.00
829;BME280;396;52.558;13.188;2024-01-15T12:44:21;98721.47;;;2.30;100.00
829;BME280;396;52.558;13.188;2024-01-15T12:46:48;98729.00;;;2.27;100.00
829;BME280;396;52.558;13.188;2024-01-15T12:49:14;98729.28;;;2.26;100.00
829;BME280;396;52.558;13.188;2024-01-15T12:51:42;98729.94;;;2.18;100.00
829;BME280;396;52.558;13.188;2024-01-15T12:54:09;98732.25;;;2.24;100.00
829;BME280;396;52.558;13.188;2024-01-15T12:56:36;98740.16;;;2.30;100.00
829;BME280;396;52.558;13.188;2024-01-15T12:59:03;98734.03;;;2.29;100.00
829;BME280;396;52.558;13.188;2024-01-15T13:01:29;98744.63;;;2.34;100.00
829;BME280;396;52.558;13.188;2024-01-15T13:03:57;98739.59;;;2.33;100.00
829;BME280;396;52.558;13.188;2024-01-15T13:06:24;98743.84;;;2.34;100.00
829;BME280;396;52.558;13.188;2024-01-15T13:08:54;98747.81;;;2.36;100.00
829;BME280;396;52.558;13.188;2024-01-15T13:11:20;98759.00;;;2.38;100.00
829;BME280;396;52.558;13.188;2024-01-15T13:13:47;98758.13;;;2.43;100.00
829;BME280;396;52.558;13.188;2024-01-15T13:16:14;98762.41;;;2.44;100.00
829;BME280;396;52.558;13.188;2024-01-15T13:18:40;98778.34;;;2.49;100.00
829;BME280;396;52.558;13.188;2024-01-15T13:21:07;98767.13;;;2.47;100.00
829;BME280;396;52.558;13.188;2024-01-15T13:23:34;98763.97;;;2.45;100.00
829;BME280;396;52.558;13.188;2024-01-15T13:26:03;98759.13;;;2.47;100.00
829;BME280;396;52.558;13.188;2024-01-15T13:28:30;98774.56;;;2.50;100.00
829;BME280;396;52.558;13.188;2024-01-15T13:30:57;98772.69;;;2.50;100.00
829;BME280;396;52.558;13.188;2024-01-15T13:33:24;98775.66;;;2.49;100.00
829;BME280;396;52.558;13.188;2024-01-15T13:35:50;98785.56;;;2.48;100.00
829;BME280;396;52.558;13.188;2024-01-15T13:38:17;98774.66;;;2.45;100.00
829;BME280;396;52.558;13.188;2024-01-15T13:40:43;98781.00;;;2.49;100.00